sensor_id;sensor_type;location;lat;lon;timestamp;P1;durP1;ratioP1;P2;durP2;ratioP2
46723;SDS011;32463;48.298;11.620;2023-05-07T00:00:54;9.25;;;6.93;;
46723;SDS011;32463;48.298;11.620;2023-05-07T00:03:21;9.57;;;5.85;;
46723;SDS011;32463;48.298;11.620;2023-05-07T00:05:47;7.85;;;6.18;;
46723;SDS011;32463;48.298;11.620;2023-05-07T00:08:14;8.75;;;6.53;;
46723;SDS011;32463;48.298;11.620;2023-05-07T00:10:40;8.30;;;6.15;;
46723;SDS011;32463;48.298;11.620;2023-05-07T00:13:07;7.82;;;5.93;;
46723;SDS011;32463;48.298;11.620;2023-05-07T00:15:33;12.15;;;5.85;;
46723;SDS011;32463;48.298;11.620;2023-05-07T00:18:00;9.02;;;6.05;;
46723;SDS011;32463;48.298;11.620;2023-05-07T00:20:26;9.40;;;6.70;;
46723;SDS011;32463;48.298;11.620;2023-05-07T00:22:53;9.55;;;6.80;;
46723;SDS011;32463;48.298;11.620;2023-05-07T00:25:19;10.07;;;7.38;;
46723;SDS011;32463;48.298;11.620;2023-05-07T00:27:45;10.30;;;6.88;;
46723;SDS011;32463;48.298;11.620;2023-05-07T00:30:12;11.85;;;6.95;;
46723;SDS011;32463;48.298;11.620;2023-05-07T00:32:39;10.93;;;7.00;;
46723;SDS011;32463;48.298;11.620;2023-05-07T00:35:06;11.13;;;6.95;;
46723;SDS011;32463;48.298;11.620;2023-05-07T00:37:33;8.30;;;6.28;;
46723;SDS011;32463;48.298;11.620;2023-05-07T00:39:59;9.95;;;5.90;;
46723;SDS011;32463;48.298;11.620;2023-05-07T00:42:28;10.77;;;6.38;;
46723;SDS011;32463;48.298;11.620;2023-05-07T00:44:54;10.43;;;6.10;;
46723;SDS011;32463;48.298;11.620;2023-05-07T00:47:21;8.93;;;5.90;;
46723;SDS011;32463;48.298;11.620;2023-05-07T00:49:48;8.77;;;6.10;;
46723;SDS011;32463;48.298;11.620;2023-05-07T00:52:15;10.55;;;6.20;;
46723;SDS011;32463;48.298;11.620;2023-05-07T00:54:42;8.80;;;6.00;;
46723;SDS011;32463;48.298;11.620;2023-05-07T00:57:10;7.90;;;6.20;;
46723;SDS011;32463;48.298;11.620;2023-05-07T00:59:37;6.93;;;5.78;;
46723;SDS011;32463;48.298;11.620;2023-05-07T01:02:04;9.68;;;6.72;;
46723;SDS011;32463;48.298;11.620;2023-05-07T01:04:31;10.75;;;6.22;;
46723;SDS011;32463;48.298;11.620;2023-05-07T01:06:57;7.90;;;6.03;;
46723;SDS011;32463;48.298;11.620;2023-05-07T01:09:27;9.25;;;6.43;;
46723;SDS011;32463;48.298;11.620;2023-05-07T01:11:54;9.65;;;6.38;;
46723;SDS011;32463;48.298;11.620;2023-05-07T01:14:22;10.27;;;7.05;;
46723;SDS011;32463;48.298;11.620;2023-05-07T01:16:49;11.48;;;6.93;;
46723;SDS011;32463;48.298;11.620;2023-05-07T01:19:17;10.52;;;7.03;;
46723;SDS011;32463;48.298;11.620;2023-05-07T01:21:44;8.20;;;6.30;;
46723;SDS011;32463;48.298;11.620;2023-05-07T01:24:14;10.82;;;6.43;;
46723;SDS011;32463;48.298;11.620;2023-05-07T01:26:42;7.85;;;5.82;;
46723;SDS011;32463;48.298;11.620;2023-05-07T01:29:09;9.23;;;6.22;;
46723;SDS011;32463;48.298;11.620;2023-05-07T01:31:36;7.75;;;5.75;;
46723;SDS011;32463;48.298;11.620;2023-05-07T01:34:03;8.18;;;6.05;;
46723;SDS011;32463;48.298;11.620;2023-05-07T01:36:33;7.25;;;6.50;;
46723;SDS011;32463;48.298;11.620;2023-05-07T01:39:00;8.73;;;6.55;;
46723;SDS011;32463;48.298;11.620;2023-05-07T01:41:28;9.48;;;6.47;;
46723;SDS011;32463;48.298;11.620;2023-05-07T01:43:54;8.27;;;6.40;;
46723;SDS011;32463;48.298;11.620;2023-05-07T01:46:21;12.43;;;6.80;;
46723;SDS011;32463;48.298;11.620;2023-05-07T01:48:47;6.93;;;6.20;;
46723;SDS011;32463;48.298;11.620;2023-05-07T01:51:16;11.68;;;6.95;;
46723;SDS011;32463;48.298;11.620;2023-05-07T01:53:42;10.45;;;7.68;;
46723;SDS011;32463;48.298;11.620;2023-05-07T01:56:10;9.85;;;7.07;;
46723;SDS011;32463;48.298;11.620;2023-05-07T01:58:37;9.68;;;5.95;;
46723;SDS011;32463;48.298;11.620;2023-05-07T02:01:03;9.05;;;6.63;;
46723;SDS011;32463;48.298;11.620;2023-05-07T02:03:30;9.82;;;6.90;;
46723;SDS011;32463;48.298;11.620;2023-05-07T02:05:56;8.65;;;7.00;;
46723;SDS011;32463;48.298;11.620;2023-05-07T02:08:22;7.93;;;6.22;;
46723;SDS011;32463;48.298;11.620;2023-05-07T02:10:49;8.55;;;6.90;;
46723;SDS011;32463;48.298;11.620;2023-05-07T02:13:16;8.52;;;7.07;;
46723;SDS011;32463;48.298;11.620;2023-05-07T02:15:43;10.82;;;7.85;;
46723;SDS011;32463;48.298;11.620;2023-05-07T02:18:12;10.02;;;7.32;;
46723;SDS011;32463;48.298;11.620;2023-05-07T02:20:38;8.73;;;7.18;;
46723;SDS011;32463;48.298;11.620;2023-05-07T02:23:04;12.23;;;7.95;;
46723;SDS011;32463;48.298;11.620;2023-05-07T02:25:31;8.85;;;7.05;;
46723;SDS011;32463;48.298;11.620;2023-05-07T02:27:57;10.05;;;6.93;;
46723;SDS011;32463;48.298;11.620;2023-05-07T02:30:24;8.93;;;6.40;;
46723;SDS011;32463;48.298;11.620;2023-05-07T02:32:51;7.22;;;6.38;;
46723;SDS011;32463;48.298;11.620;2023-05-07T02:35:18;9.13;;;6.63;;
46723;SDS011;32463;48.298;11.620;2023-05-07T02:37:44;13.23;;;6.80;;
46723;SDS011;32463;48.298;11.620;2023-05-07T02:40:11;9.13;;;7.13;;
46723;SDS011;32463;48.298;11.620;2023-05-07T02:42:38;10.18;;;7.53;;
46723;SDS011;32463;48.298;11.620;2023-05-07T02:45:04;9.13;;;6.78;;
46723;SDS011;32463;48.298;11.620;2023-05-07T02:47:31;9.82;;;7.65;;
46723;SDS011;32463;48.298;11.620;2023-05-07T02:49:57;11.18;;;8.07;;
46723;SDS011;32463;48.298;11.620;2023-05-07T02:52:24;8.65;;;7.10;;
46723;SDS011;32463;48.298;11.620;2023-05-07T02:54:50;11.80;;;8.32;;
46723;SDS011;32463;48.298;11.620;2023-05-07T02:57:17;12.10;;;9.20;;
46723;SDS011;32463;48.298;11.620;2023-05-07T02:59:43;11.35;;;8.27;;
46723;SDS011;32463;48.298;11.620;2023-05-07T03:02:10;9.48;;;7.78;;
46723;SDS011;32463;48.298;11.620;2023-05-07T03:04:36;10.25;;;8.20;;
46723;SDS011;32463;48.298;11.620;2023-05-07T03:07:03;9.82;;;8.18;;
46723;SDS011;32463;48.298;11.620;2023-05-07T03:09:29;10.85;;;7.82;;
46723;SDS011;32463;48.298;11.620;2023-05-07T03:11:56;10.90;;;7.70;;
46723;SDS011;32463;48.298;11.620;2023-05-07T03:14:23;9.55;;;7.13;;
46723;SDS011;32463;48.298;11.620;2023-05-07T03:16:49;10.10;;;6.93;;
46723;SDS011;32463;48.298;11.620;2023-05-07T03:19:16;10.95;;;7.32;;
46723;SDS011;32463;48.298;11.620;2023-05-07T03:21:42;13.45;;;7.85;;
46723;SDS011;32463;48.298;11.620;2023-05-07T03:24:09;10.80;;;8.00;;
46723;SDS011;32463;48.298;11.620;2023-05-07T03:26:35;11.18;;;8.68;;
46723;SDS011;32463;48.298;11.620;2023-05-07T03:29:01;10.65;;;8.43;;
46723;SDS011;32463;48.298;11.620;2023-05-07T03:31:28;11.50;;;9.18;;
46723;SDS011;32463;48.298;11.620;2023-05-07T03:33:55;10.80;;;8.70;;
46723;SDS011;32463;48.298;11.620;2023-05-07T03:36:23;13.68;;;7.65;;
46723;SDS011;32463;48.298;11.620;2023-05-07T03:38:51;11.05;;;8.35;;
46723;SDS011;32463;48.298;11.620;2023-05-07T03:41:18;14.25;;;7.47;;
46723;SDS011;32463;48.298;11.620;2023-05-07T03:43:45;10.85;;;8.05;;
46723;SDS011;32463;48.298;11.620;2023-05-07T03:46:11;12.77;;;8.40;;
46723;SDS011;32463;48.298;11.620;2023-05-07T03:48:38;11.20;;;9.23;;
46723;SDS011;32463;48.298;11.620;2023-05-07T03:51:04;15.88;;;10.00;;
46723;SDS011;32463;48.298;11.620;2023-05-07T03:53:31;12.05;;;9.38;;
46723;SDS011;32463;48.298;11.620;2023-05-07T03:55:57;11.82;;;9.00;;
46723;SDS011;32463;48.298;11.620;2023-05-07T03:58:24;11.73;;;9.13;;
46723;SDS011;32463;48.298;11.620;2023-05-07T04:00:50;11.40;;;8.70;;
46723;SDS011;32463;48.298;11.620;2023-05-07T04:03:17;13.07;;;8.18;;
46723;SDS011;32463;48.298;11.620;2023-05-07T04:05:43;12.38;;;8.65;;
46723;SDS011;32463;48.298;11.620;2023-05-07T04:08:10;10.05;;;8.18;;
46723;SDS011;32463;48.298;11.620;2023-05-07T04:10:36;8.00;;;7.13;;
46723;SDS011;32463;48.298;11.620;2023-05-07T04:13:03;11.15;;;8.30;;
46723;SDS011;32463;48.298;11.620;2023-05-07T04:15:29;11.35;;;9.25;;
46723;SDS011;32463;48.298;11.620;2023-05-07T04:17:56;11.57;;;8.32;;
46723;SDS011;32463;48.298;11.620;2023-05-07T04:20:22;10.07;;;7.93;;
46723;SDS011;32463;48.298;11.620;2023-05-07T04:22:49;13.25;;;8.48;;
46723;SDS011;32463;48.298;11.620;2023-05-07T04:25:16;14.77;;;9.00;;
46723;SDS011;32463;48.298;11.620;2023-05-07T04:27:42;10.00;;;8.45;;
46723;SDS011;32463;48.298;11.620;2023-05-07T04:30:11;10.13;;;7.40;;
46723;SDS011;32463;48.298;11.620;2023-05-07T04:32:38;9.45;;;8.18;;
46723;SDS011;32463;48.298;11.620;2023-05-07T04:35:05;12.32;;;8.68;;
46723;SDS011;32463;48.298;11.620;2023-05-07T04:37:32;10.10;;;8.43;;
46723;SDS011;32463;48.298;11.620;2023-05-07T04:40:00;10.80;;;7.28;;
46723;SDS011;32463;48.298;11.620;2023-05-07T04:42:27;8.98;;;8.07;;
46723;SDS011;32463;48.298;11.620;2023-05-07T04:44:54;12.57;;;7.55;;
46723;SDS011;32463;48.298;11.620;2023-05-07T04:47:21;9.68;;;7.45;;
46723;SDS011;32463;48.298;11.620;2023-05-07T04:49:47;17.40;;;8.30;;
46723;SDS011;32463;48.298;11.620;2023-05-07T04:52:14;9.93;;;7.72;;
46723;SDS011;32463;48.298;11.620;2023-05-07T04:54:40;9.35;;;7.20;;
46723;SDS011;32463;48.298;11.620;2023-05-07T04:57:07;9.98;;;7.22;;
46723;SDS011;32463;48.298;11.620;2023-05-07T04:59:33;10.82;;;6.90;;
46723;SDS011;32463;48.298;11.620;2023-05-07T05:02:00;10.65;;;6.93;;
46723;SDS011;32463;48.298;11.620;2023-05-07T05:04:26;9.15;;;7.32;;
46723;SDS011;32463;48.298;11.620;2023-05-07T05:06:53;8.63;;;7.03;;
46723;SDS011;32463;48.298;11.620;2023-05-07T05:09:19;9.07;;;6.78;;
46723;SDS011;32463;48.298;11.620;2023-05-07T05:11:46;8.10;;;6.95;;
46723;SDS011;32463;48.298;11.620;2023-05-07T05:14:12;9.25;;;7.13;;
46723;SDS011;32463;48.298;11.620;2023-05-07T05:16:39;8.70;;;6.90;;
46723;SDS011;32463;48.298;11.620;2023-05-07T05:19:05;9.88;;;7.38;;
46723;SDS011;32463;48.298;11.620;2023-05-07T05:21:31;8.05;;;6.72;;
46723;SDS011;32463;48.298;11.620;2023-05-07T05:23:58;10.80;;;7.20;;
46723;SDS011;32463;48.298;11.620;2023-05-07T05:26:24;8.13;;;6.70;;
46723;SDS011;32463;48.298;11.620;2023-05-07T05:28:51;10.77;;;7.35;;
46723;SDS011;32463;48.298;11.620;2023-05-07T05:31:17;11.95;;;7.80;;
46723;SDS011;32463;48.298;11.620;2023-05-07T05:33:44;11.05;;;7.78;;
46723;SDS011;32463;48.298;11.620;2023-05-07T05:36:10;10.07;;;7.68;;
46723;SDS011;32463;48.298;11.620;2023-05-07T05:38:38;9.15;;;7.63;;
46723;SDS011;32463;48.298;11.620;2023-05-07T05:41:04;7.88;;;7.03;;
46723;SDS011;32463;48.298;11.620;2023-05-07T05:43:31;8.85;;;7.25;;
46723;SDS011;32463;48.298;11.620;2023-05-07T05:45:57;12.90;;;6.95;;
46723;SDS011;32463;48.298;11.620;2023-05-07T05:48:25;12.80;;;7.00;;
46723;SDS011;32463;48.298;11.620;2023-05-07T05:50:51;8.00;;;7.07;;
46723;SDS011;32463;48.298;11.620;2023-05-07T05:53:18;9.77;;;7.35;;
46723;SDS011;32463;48.298;11.620;2023-05-07T05:55:44;8.65;;;6.70;;
46723;SDS011;32463;48.298;11.620;2023-05-07T05:58:11;8.20;;;6.78;;
46723;SDS011;32463;48.298;11.620;2023-05-07T06:00:37;7.75;;;6.95;;
46723;SDS011;32463;48.298;11.620;2023-05-07T06:03:04;8.02;;;6.57;;
46723;SDS011;32463;48.298;11.620;2023-05-07T06:05:31;9.35;;;6.30;;
46723;SDS011;32463;48.298;11.620;2023-05-07T06:07:57;11.45;;;6.90;;
46723;SDS011;32463;48.298;11.620;2023-05-07T06:10:24;10.25;;;6.72;;
46723;SDS011;32463;48.298;11.620;2023-05-07T06:12:52;8.52;;;6.90;;
46723;SDS011;32463;48.298;11.620;2023-05-07T06:15:18;10.38;;;7.25;;
46723;SDS011;32463;48.298;11.620;2023-05-07T06:17:45;7.72;;;6.70;;
46723;SDS011;32463;48.298;11.620;2023-05-07T06:20:12;7.70;;;6.25;;
46723;SDS011;32463;48.298;11.620;2023-05-07T06:22:38;11.02;;;7.40;;
46723;SDS011;32463;48.298;11.620;2023-05-07T06:25:05;9.85;;;6.63;;
46723;SDS011;32463;48.298;11.620;2023-05-07T06:27:31;7.88;;;6.80;;
46723;SDS011;32463;48.298;11.620;2023-05-07T06:29:58;9.32;;;6.75;;
46723;SDS011;32463;48.298;11.620;2023-05-07T06:32:24;9.55;;;6.68;;
46723;SDS011;32463;48.298;11.620;2023-05-07T06:34:51;12.68;;;8.93;;
46723;SDS011;32463;48.298;11.620;2023-05-07T06:37:17;8.30;;;7.10;;
46723;SDS011;32463;48.298;11.620;2023-05-07T06:39:44;9.85;;;7.45;;
46723;SDS011;32463;48.298;11.620;2023-05-07T06:42:10;12.45;;;7.03;;
46723;SDS011;32463;48.298;11.620;2023-05-07T06:44:36;8.57;;;7.30;;
46723;SDS011;32463;48.298;11.620;2023-05-07T06:47:03;9.18;;;7.10;;
46723;SDS011;32463;48.298;11.620;2023-05-07T06:49:30;9.43;;;6.40;;
46723;SDS011;32463;48.298;11.620;2023-05-07T06:51:57;9.75;;;7.30;;
46723;SDS011;32463;48.298;11.620;2023-05-07T06:54:24;9.20;;;6.97;;
46723;SDS011;32463;48.298;11.620;2023-05-07T06:56:50;7.68;;;6.40;;
46723;SDS011;32463;48.298;11.620;2023-05-07T06:59:16;7.95;;;6.65;;
46723;SDS011;32463;48.298;11.620;2023-05-07T07:01:44;9.82;;;7.20;;
46723;SDS011;32463;48.298;11.620;2023-05-07T07:04:10;7.63;;;6.80;;
46723;SDS011;32463;48.298;11.620;2023-05-07T07:06:37;8.63;;;7.00;;
46723;SDS011;32463;48.298;11.620;2023-05-07T07:09:03;10.50;;;6.95;;
46723;SDS011;32463;48.298;11.620;2023-05-07T07:11:30;9.30;;;7.03;;
46723;SDS011;32463;48.298;11.620;2023-05-07T07:13:56;9.05;;;7.22;;
46723;SDS011;32463;48.298;11.620;2023-05-07T07:16:23;8.18;;;6.95;;
46723;SDS011;32463;48.298;11.620;2023-05-07T07:18:50;8.52;;;7.50;;
46723;SDS011;32463;48.298;11.620;2023-05-07T07:21:17;8.57;;;7.32;;
46723;SDS011;32463;48.298;11.620;2023-05-07T07:23:43;11.02;;;7.65;;
46723;SDS011;32463;48.298;11.620;2023-05-07T07:26:10;8.07;;;6.88;;
46723;SDS011;32463;48.298;11.620;2023-05-07T07:28:41;9.05;;;7.35;;
46723;SDS011;32463;48.298;11.620;2023-05-07T07:33:35;14.20;;;10.10;;
46723;SDS011;32463;48.298;11.620;2023-05-07T07:36:01;9.68;;;7.55;;
46723;SDS011;32463;48.298;11.620;2023-05-07T07:38:28;8.38;;;6.93;;
46723;SDS011;32463;48.298;11.620;2023-05-07T07:40:54;7.80;;;6.78;;
46723;SDS011;32463;48.298;11.620;2023-05-07T07:43:21;10.68;;;7.38;;
46723;SDS011;32463;48.298;11.620;2023-05-07T07:45:47;8.98;;;7.22;;
46723;SDS011;32463;48.298;11.620;2023-05-07T07:48:14;13.48;;;6.70;;
46723;SDS011;32463;48.298;11.620;2023-05-07T07:50:40;7.35;;;6.57;;
46723;SDS011;32463;48.298;11.620;2023-05-07T07:53:07;8.07;;;6.53;;
46723;SDS011;32463;48.298;11.620;2023-05-07T07:55:37;11.07;;;6.55;;
46723;SDS011;32463;48.298;11.620;2023-05-07T07:58:05;10.27;;;6.43;;
46723;SDS011;32463;48.298;11.620;2023-05-07T08:00:31;9.13;;;6.88;;
46723;SDS011;32463;48.298;11.620;2023-05-07T08:02:58;7.68;;;6.88;;
46723;SDS011;32463;48.298;11.620;2023-05-07T08:05:24;9.13;;;6.93;;
46723;SDS011;32463;48.298;11.620;2023-05-07T08:07:50;8.38;;;6.75;;
46723;SDS011;32463;48.298;11.620;2023-05-07T08:10:18;9.23;;;6.78;;
46723;SDS011;32463;48.298;11.620;2023-05-07T08:12:46;7.90;;;6.47;;
46723;SDS011;32463;48.298;11.620;2023-05-07T08:15:14;9.82;;;8.13;;
46723;SDS011;32463;48.298;11.620;2023-05-07T08:17:40;11.40;;;8.10;;
46723;SDS011;32463;48.298;11.620;2023-05-07T08:20:07;8.45;;;7.45;;
46723;SDS011;32463;48.298;11.620;2023-05-07T08:22:34;8.82;;;7.47;;
46723;SDS011;32463;48.298;11.620;2023-05-07T08:25:01;9.27;;;7.75;;
46723;SDS011;32463;48.298;11.620;2023-05-07T08:27:28;11.63;;;8.38;;
46723;SDS011;32463;48.298;11.620;2023-05-07T08:29:55;9.05;;;7.93;;
46723;SDS011;32463;48.298;11.620;2023-05-07T08:32:21;10.45;;;8.40;;
46723;SDS011;32463;48.298;11.620;2023-05-07T08:34:48;9.90;;;7.82;;
46723;SDS011;32463;48.298;11.620;2023-05-07T08:37:14;9.32;;;7.68;;
46723;SDS011;32463;48.298;11.620;2023-05-07T08:39:40;8.20;;;6.78;;
46723;SDS011;32463;48.298;11.620;2023-05-07T08:42:07;9.38;;;7.70;;
46723;SDS011;32463;48.298;11.620;2023-05-07T08:44:35;10.05;;;7.40;;
46723;SDS011;32463;48.298;11.620;2023-05-07T08:47:06;8.07;;;6.30;;
46723;SDS011;32463;48.298;11.620;2023-05-07T08:49:33;8.80;;;7.25;;
46723;SDS011;32463;48.298;11.620;2023-05-07T08:52:01;11.35;;;7.53;;
46723;SDS011;32463;48.298;11.620;2023-05-07T08:54:27;8.77;;;7.38;;
46723;SDS011;32463;48.298;11.620;2023-05-07T08:56:55;9.98;;;8.05;;
46723;SDS011;32463;48.298;11.620;2023-05-07T08:59:21;8.70;;;7.75;;
46723;SDS011;32463;48.298;11.620;2023-05-07T09:01:48;8.77;;;7.22;;
46723;SDS011;32463;48.298;11.620;2023-05-07T09:04:14;9.50;;;7.28;;
46723;SDS011;32463;48.298;11.620;2023-05-07T09:06:41;8.15;;;7.03;;
46723;SDS011;32463;48.298;11.620;2023-05-07T09:09:07;7.97;;;6.80;;
46723;SDS011;32463;48.298;11.620;2023-05-07T09:11:34;8.48;;;6.63;;
46723;SDS011;32463;48.298;11.620;2023-05-07T09:14:01;10.30;;;7.05;;
46723;SDS011;32463;48.298;11.620;2023-05-07T09:16:29;10.07;;;7.57;;
46723;SDS011;32463;48.298;11.620;2023-05-07T09:18:57;17.17;;;11.30;;
46723;SDS011;32463;48.298;11.620;2023-05-07T09:21:25;10.40;;;6.47;;
46723;SDS011;32463;48.298;11.620;2023-05-07T09:23:52;7.70;;;5.50;;
46723;SDS011;32463;48.298;11.620;2023-05-07T09:26:21;7.38;;;6.00;;
46723;SDS011;32463;48.298;11.620;2023-05-07T09:28:48;10.73;;;5.55;;
46723;SDS011;32463;48.298;11.620;2023-05-07T09:31:14;6.10;;;4.55;;
46723;SDS011;32463;48.298;11.620;2023-05-07T09:33:41;6.10;;;4.30;;
46723;SDS011;32463;48.298;11.620;2023-05-07T09:36:08;7.38;;;4.50;;
46723;SDS011;32463;48.298;11.620;2023-05-07T09:38:36;6.25;;;4.30;;
46723;SDS011;32463;48.298;11.620;2023-05-07T09:43:39;4.22;;;2.92;;
46723;SDS011;32463;48.298;11.620;2023-05-07T09:46:07;5.40;;;3.30;;
46723;SDS011;32463;48.298;11.620;2023-05-07T09:48:42;5.20;;;3.10;;
46723;SDS011;32463;48.298;11.620;2023-05-07T09:51:24;5.32;;;3.42;;
46723;SDS011;32463;48.298;11.620;2023-05-07T09:53:54;3.60;;;2.70;;
46723;SDS011;32463;48.298;11.620;2023-05-07T09:56:23;5.43;;;3.50;;
46723;SDS011;32463;48.298;11.620;2023-05-07T09:58:52;6.78;;;3.30;;
46723;SDS011;32463;48.298;11.620;2023-05-07T10:01:22;4.30;;;3.17;;
46723;SDS011;32463;48.298;11.620;2023-05-07T10:03:51;5.35;;;3.42;;
46723;SDS011;32463;48.298;11.620;2023-05-07T10:06:21;5.63;;;2.83;;
46723;SDS011;32463;48.298;11.620;2023-05-07T10:08:51;3.10;;;2.20;;
46723;SDS011;32463;48.298;11.620;2023-05-07T10:11:19;5.55;;;2.53;;
46723;SDS011;32463;48.298;11.620;2023-05-07T10:13:46;5.13;;;2.78;;
46723;SDS011;32463;48.298;11.620;2023-05-07T10:16:14;4.30;;;2.60;;
46723;SDS011;32463;48.298;11.620;2023-05-07T10:18:41;5.05;;;2.47;;
46723;SDS011;32463;48.298;11.620;2023-05-07T10:21:19;4.32;;;2.42;;
46723;SDS011;32463;48.298;11.620;2023-05-07T10:23:50;4.95;;;2.30;;
46723;SDS011;32463;48.298;11.620;2023-05-07T10:26:23;3.55;;;2.13;;
46723;SDS011;32463;48.298;11.620;2023-05-07T10:28:53;5.85;;;3.15;;
46723;SDS011;32463;48.298;11.620;2023-05-07T10:34:00;3.00;;;2.17;;
46723;SDS011;32463;48.298;11.620;2023-05-07T10:36:33;3.88;;;2.50;;
46723;SDS011;32463;48.298;11.620;2023-05-07T10:38:59;4.35;;;1.88;;
46723;SDS011;32463;48.298;11.620;2023-05-07T10:41:26;3.15;;;2.40;;
46723;SDS011;32463;48.298;11.620;2023-05-07T10:43:53;3.88;;;2.22;;
46723;SDS011;32463;48.298;11.620;2023-05-07T10:46:20;3.88;;;2.20;;
46723;SDS011;32463;48.298;11.620;2023-05-07T10:51:30;5.22;;;2.33;;
46723;SDS011;32463;48.298;11.620;2023-05-07T10:56:39;7.70;;;2.90;;
46723;SDS011;32463;48.298;11.620;2023-05-07T11:04:21;4.55;;;3.47;;
46723;SDS011;32463;48.298;11.620;2023-05-07T11:12:46;3.67;;;2.42;;
46723;SDS011;32463;48.298;11.620;2023-05-07T11:15:04;5.38;;;2.80;;
46723;SDS011;32463;48.298;11.620;2023-05-07T11:17:59;6.47;;;2.30;;
46723;SDS011;32463;48.298;11.620;2023-05-07T11:28:37;3.38;;;1.92;;
46723;SDS011;32463;48.298;11.620;2023-05-07T11:31:04;3.40;;;2.28;;
46723;SDS011;32463;48.298;11.620;2023-05-07T11:33:31;2.70;;;1.98;;
46723;SDS011;32463;48.298;11.620;2023-05-07T11:35:58;4.82;;;2.10;;
46723;SDS011;32463;48.298;11.620;2023-05-07T11:38:25;6.90;;;2.25;;
46723;SDS011;32463;48.298;11.620;2023-05-07T11:40:53;2.38;;;1.95;;
46723;SDS011;32463;48.298;11.620;2023-05-07T11:43:20;3.78;;;2.05;;
46723;SDS011;32463;48.298;11.620;2023-05-07T11:45:47;3.45;;;2.10;;
46723;SDS011;32463;48.298;11.620;2023-05-07T11:48:15;4.82;;;2.13;;
46723;SDS011;32463;48.298;11.620;2023-05-07T11:50:52;3.83;;;2.35;;
46723;SDS011;32463;48.298;11.620;2023-05-07T11:53:19;5.55;;;3.10;;
46723;SDS011;32463;48.298;11.620;2023-05-07T11:55:56;3.95;;;1.92;;
46723;SDS011;32463;48.298;11.620;2023-05-07T11:58:23;3.05;;;1.70;;
46723;SDS011;32463;48.298;11.620;2023-05-07T12:00:51;3.55;;;1.60;;
46723;SDS011;32463;48.298;11.620;2023-05-07T12:03:21;3.28;;;1.50;;
46723;SDS011;32463;48.298;11.620;2023-05-07T12:05:47;3.88;;;1.80;;
46723;SDS011;32463;48.298;11.620;2023-05-07T12:08:17;3.30;;;1.73;;
46723;SDS011;32463;48.298;11.620;2023-05-07T12:10:45;2.47;;;1.50;;
46723;SDS011;32463;48.298;11.620;2023-05-07T12:13:17;2.72;;;1.45;;
46723;SDS011;32463;48.298;11.620;2023-05-07T12:15:45;2.05;;;1.40;;
46723;SDS011;32463;48.298;11.620;2023-05-07T12:18:12;4.00;;;1.60;;
46723;SDS011;32463;48.298;11.620;2023-05-07T12:20:40;4.10;;;2.00;;
46723;SDS011;32463;48.298;11.620;2023-05-07T12:23:08;2.75;;;1.90;;
46723;SDS011;32463;48.298;11.620;2023-05-07T12:25:35;3.95;;;2.10;;
46723;SDS011;32463;48.298;11.620;2023-05-07T12:28:02;6.28;;;2.22;;
46723;SDS011;32463;48.298;11.620;2023-05-07T12:30:30;3.60;;;2.13;;
46723;SDS011;32463;48.298;11.620;2023-05-07T12:33:03;4.57;;;2.40;;
46723;SDS011;32463;48.298;11.620;2023-05-07T12:35:30;3.15;;;1.95;;
46723;SDS011;32463;48.298;11.620;2023-05-07T12:37:58;3.10;;;1.92;;
46723;SDS011;32463;48.298;11.620;2023-05-07T12:40:37;3.65;;;1.90;;
46723;SDS011;32463;48.298;11.620;2023-05-07T12:43:05;5.22;;;2.20;;
46723;SDS011;32463;48.298;11.620;2023-05-07T12:45:35;3.78;;;2.30;;
46723;SDS011;32463;48.298;11.620;2023-05-07T12:48:03;4.38;;;1.98;;
46723;SDS011;32463;48.298;11.620;2023-05-07T12:50:31;4.47;;;1.90;;
46723;SDS011;32463;48.298;11.620;2023-05-07T12:52:59;3.28;;;2.05;;
46723;SDS011;32463;48.298;11.620;2023-05-07T12:55:28;4.47;;;2.05;;
46723;SDS011;32463;48.298;11.620;2023-05-07T12:58:00;2.40;;;1.77;;
46723;SDS011;32463;48.298;11.620;2023-05-07T13:00:34;3.40;;;2.10;;
46723;SDS011;32463;48.298;11.620;2023-05-07T13:03:04;3.67;;;2.40;;
46723;SDS011;32463;48.298;11.620;2023-05-07T13:05:31;4.30;;;2.42;;
46723;SDS011;32463;48.298;11.620;2023-05-07T13:07:58;2.85;;;1.92;;
46723;SDS011;32463;48.298;11.620;2023-05-07T13:10:25;3.05;;;1.80;;
46723;SDS011;32463;48.298;11.620;2023-05-07T13:12:51;3.78;;;2.00;;
46723;SDS011;32463;48.298;11.620;2023-05-07T13:15:19;3.22;;;2.03;;
46723;SDS011;32463;48.298;11.620;2023-05-07T13:17:46;4.03;;;2.20;;
46723;SDS011;32463;48.298;11.620;2023-05-07T13:20:12;3.90;;;2.10;;
46723;SDS011;32463;48.298;11.620;2023-05-07T13:22:39;3.20;;;2.10;;
46723;SDS011;32463;48.298;11.620;2023-05-07T13:25:06;3.33;;;1.95;;
46723;SDS011;32463;48.298;11.620;2023-05-07T13:27:33;4.63;;;1.88;;
46723;SDS011;32463;48.298;11.620;2023-05-07T13:30:01;3.40;;;1.98;;
46723;SDS011;32463;48.298;11.620;2023-05-07T13:32:29;5.82;;;2.20;;
46723;SDS011;32463;48.298;11.620;2023-05-07T13:34:56;2.47;;;1.70;;
46723;SDS011;32463;48.298;11.620;2023-05-07T13:37:22;4.25;;;1.80;;
46723;SDS011;32463;48.298;11.620;2023-05-07T13:39:49;4.32;;;2.00;;
46723;SDS011;32463;48.298;11.620;2023-05-07T13:42:15;4.65;;;2.35;;
46723;SDS011;32463;48.298;11.620;2023-05-07T13:44:42;5.00;;;1.90;;
46723;SDS011;32463;48.298;11.620;2023-05-07T13:47:09;5.13;;;1.90;;
46723;SDS011;32463;48.298;11.620;2023-05-07T13:49:35;4.63;;;1.90;;
46723;SDS011;32463;48.298;11.620;2023-05-07T13:52:02;4.28;;;1.90;;
46723;SDS011;32463;48.298;11.620;2023-05-07T13:54:29;4.07;;;2.00;;
46723;SDS011;32463;48.298;11.620;2023-05-07T13:56:55;4.70;;;2.08;;
46723;SDS011;32463;48.298;11.620;2023-05-07T13:59:22;3.15;;;1.77;;
46723;SDS011;32463;48.298;11.620;2023-05-07T14:01:48;3.88;;;1.95;;
46723;SDS011;32463;48.298;11.620;2023-05-07T14:04:15;2.60;;;1.70;;
46723;SDS011;32463;48.298;11.620;2023-05-07T14:06:41;4.03;;;1.70;;
46723;SDS011;32463;48.298;11.620;2023-05-07T14:09:07;3.08;;;1.70;;
46723;SDS011;32463;48.298;11.620;2023-05-07T14:11:37;5.20;;;2.17;;
46723;SDS011;32463;48.298;11.620;2023-05-07T14:14:03;2.67;;;1.67;;
46723;SDS011;32463;48.298;11.620;2023-05-07T14:16:29;2.55;;;1.70;;
46723;SDS011;32463;48.298;11.620;2023-05-07T14:18:56;1.83;;;1.58;;
46723;SDS011;32463;48.298;11.620;2023-05-07T14:21:22;2.78;;;1.63;;
46723;SDS011;32463;48.298;11.620;2023-05-07T14:23:49;4.00;;;1.88;;
46723;SDS011;32463;48.298;11.620;2023-05-07T14:26:16;4.28;;;2.00;;
46723;SDS011;32463;48.298;11.620;2023-05-07T14:28:42;4.63;;;2.05;;
46723;SDS011;32463;48.298;11.620;2023-05-07T14:31:11;4.10;;;1.90;;
46723;SDS011;32463;48.298;11.620;2023-05-07T14:33:38;6.75;;;2.67;;
46723;SDS011;32463;48.298;11.620;2023-05-07T14:36:04;3.70;;;2.33;;
46723;SDS011;32463;48.298;11.620;2023-05-07T14:38:31;3.67;;;1.80;;
46723;SDS011;32463;48.298;11.620;2023-05-07T14:40:58;9.70;;;3.60;;
46723;SDS011;32463;48.298;11.620;2023-05-07T14:43:25;4.97;;;2.25;;
46723;SDS011;32463;48.298;11.620;2023-05-07T14:45:51;7.38;;;2.90;;
46723;SDS011;32463;48.298;11.620;2023-05-07T14:48:18;3.78;;;2.05;;
46723;SDS011;32463;48.298;11.620;2023-05-07T14:50:46;9.85;;;3.72;;
46723;SDS011;32463;48.298;11.620;2023-05-07T14:53:13;8.52;;;3.15;;
46723;SDS011;32463;48.298;11.620;2023-05-07T14:55:39;4.80;;;2.00;;
46723;SDS011;32463;48.298;11.620;2023-05-07T14:58:06;3.97;;;1.98;;
46723;SDS011;32463;48.298;11.620;2023-05-07T15:00:33;4.13;;;2.20;;
46723;SDS011;32463;48.298;11.620;2023-05-07T15:03:06;6.00;;;2.40;;